Time;durP1;ratioP1;P1;durP2;ratioP2;P2;SDS_P1;SDS_P2;PMS_P1;PMS_P2;Temp;Humidity;BMP_temperature;BMP_pressure;BME280_temperature;BME280_humidity;BME280_pressure;Samples;Min_cycle;Max_cycle;Signal;HPM_P1;HPM_P2
2022/02/08 00:01:43;;;;;;;7.30;3.10;;;;;;;;;;5032165;28;20352;-79
2022/02/08 00:04:09;;;;;;;8.70;2.88;;;;;;;;;;5031781;28;20110;-80
2022/02/08 00:06:46;;;;;;;6.57;3.40;;;;;;;;;;5026894;28;20061;-79
2022/02/08 00:09:14;;;;;;;4.43;2.53;;;;;;;;;;5013439;28;20030;-85
2022/02/08 00:11:41;;;;;;;5.38;3.03;;;;;;;;;;5013546;28;20018;-85
2022/02/08 00:14:07;;;;;;;4.78;2.33;;;;;;;;;;5013438;28;20149;-85
2022/02/08 00:16:33;;;;;;;4.57;3.28;;;;;;;;;;5013452;28;20469;-85
2022/02/08 00:19:00;;;;;;;5.30;3.20;;;;;;;;;;5013429;28;20472;-82
2022/02/08 00:21:26;;;;;;;4.95;3.05;;;;;;;;;;5013311;28;20029;-81
2022/02/08 00:23:52;;;;;;;7.10;3.10;;;;;;;;;;5013207;28;20122;-81
2022/02/08 00:26:18;;;;;;;10.60;4.82;;;;;;;;;;5013255;28;20026;-82
2022/02/08 00:28:44;;;;;;;6.55;3.65;;;;;;;;;;5013283;28;20038;-83
2022/02/08 00:31:10;;;;;;;4.63;2.67;;;;;;;;;;5029983;28;20021;-83
2022/02/08 00:33:36;;;;;;;5.35;3.75;;;;;;;;;;5033031;28;20045;-84
2022/02/08 00:36:02;;;;;;;7.28;4.05;;;;;;;;;;5030919;28;20017;-83
2022/02/08 00:38:31;;;;;;;4.80;2.30;;;;;;;;;;5032339;28;20045;-81
2022/02/08 00:40:59;;;;;;;8.88;3.33;;;;;;;;;;5033888;28;20025;-77
2022/02/08 00:43:30;;;;;;;5.32;3.00;;;;;;;;;;5032228;28;20017;-77
2022/02/08 00:46:05;;;;;;;4.70;2.25;;;;;;;;;;5032273;28;20388;-78
2022/02/08 00:48:39;;;;;;;6.07;3.13;;;;;;;;;;5031916;28;20057;-78
2022/02/08 00:51:05;;;;;;;5.05;2.90;;;;;;;;;;5032163;28;20080;-78
2022/02/08 00:53:31;;;;;;;6.50;3.13;;;;;;;;;;5031960;28;20033;-78
2022/02/08 00:55:57;;;;;;;9.38;3.33;;;;;;;;;;5032046;28;20017;-79
2022/02/08 00:58:23;;;;;;;9.40;3.28;;;;;;;;;;5031871;28;20078;-79
2022/02/08 01:00:49;;;;;;;7.15;3.28;;;;;;;;;;5031975;28;20026;-78
2022/02/08 01:03:18;;;;;;;9.02;3.28;;;;;;;;;;5031862;28;20033;-77
2022/02/08 01:05:53;;;;;;;8.63;2.95;;;;;;;;;;5031865;28;20021;-79
2022/02/08 01:08:22;;;;;;;6.00;3.03;;;;;;;;;;5032652;28;20032;-81
2022/02/08 01:10:48;;;;;;;4.50;2.58;;;;;;;;;;5033094;28;20192;-78
2022/02/08 01:13:14;;;;;;;6.32;3.15;;;;;;;;;;5031648;28;20017;-78
2022/02/08 01:15:40;;;;;;;8.85;3.25;;;;;;;;;;5032738;28;20022;-80
2022/02/08 01:18:06;;;;;;;9.18;3.28;;;;;;;;;;5031222;28;20021;-78
2022/02/08 01:20:36;;;;;;;10.20;4.13;;;;;;;;;;5031580;28;20022;-78
2022/02/08 01:23:04;;;;;;;11.07;2.78;;;;;;;;;;5031468;28;20025;-75
2022/02/08 01:25:35;;;;;;;13.65;3.50;;;;;;;;;;5032396;28;20477;-79
2022/02/08 01:31:03;;;;;;;8.57;3.53;;;;;;;;;;5032607;28;20112;-79
2022/02/08 01:38:40;;;;;;;10.38;4.20;;;;;;;;;;5032383;28;20140;-78
2022/02/08 01:41:34;;;;;;;8.30;3.92;;;;;;;;;;5031242;28;20021;-77
2022/02/08 01:46:48;;;;;;;6.90;3.70;;;;;;;;;;5032470;28;20030;-77
2022/02/08 01:51:50;;;;;;;5.40;2.70;;;;;;;;;;5032434;28;20472;-77
2022/02/08 01:54:16;;;;;;;9.82;3.47;;;;;;;;;;5032120;28;20025;-76
2022/02/08 01:56:42;;;;;;;4.47;2.67;;;;;;;;;;5031027;28;20018;-79
2022/02/08 01:59:08;;;;;;;7.13;3.10;;;;;;;;;;5031899;28;20048;-77
2022/02/08 02:01:34;;;;;;;7.63;4.05;;;;;;;;;;5029473;28;20473;-79
2022/02/08 02:04:00;;;;;;;8.25;3.63;;;;;;;;;;5030892;28;20021;-79
2022/02/08 02:06:27;;;;;;;4.88;3.10;;;;;;;;;;5030924;28;20076;-77
2022/02/08 02:08:53;;;;;;;4.95;2.85;;;;;;;;;;5029135;28;20044;-77
2022/02/08 02:11:19;;;;;;;14.63;4.25;;;;;;;;;;5030779;28;20396;-78
2022/02/08 02:13:50;;;;;;;9.38;3.85;;;;;;;;;;5032167;28;20029;-79
2022/02/08 02:16:27;;;;;;;6.20;2.85;;;;;;;;;;5030343;28;20044;-77
2022/02/08 02:18:53;;;;;;;11.18;3.60;;;;;;;;;;5026766;28;20108;-78
2022/02/08 02:21:19;;;;;;;9.52;3.83;;;;;;;;;;5032043;28;20026;-78
2022/02/08 02:23:48;;;;;;;6.18;3.40;;;;;;;;;;5030644;28;20157;-78
2022/02/08 02:26:14;;;;;;;8.38;2.50;;;;;;;;;;5030560;28;20021;-77
2022/02/08 02:28:40;;;;;;;7.63;3.42;;;;;;;;;;5030198;28;20041;-77
2022/02/08 02:31:06;;;;;;;9.75;3.53;;;;;;;;;;5030511;28;20017;-78
2022/02/08 02:33:33;;;;;;;10.15;3.20;;;;;;;;;;5031626;28;20030;-79
2022/02/08 02:35:59;;;;;;;11.07;3.80;;;;;;;;;;5030700;28;20028;-78
2022/02/08 02:38:25;;;;;;;9.48;3.33;;;;;;;;;;5032129;28;20032;-78
2022/02/08 02:40:52;;;;;;;7.65;3.40;;;;;;;;;;5030512;28;20451;-79
2022/02/08 02:43:18;;;;;;;4.18;2.80;;;;;;;;;;5030502;28;20033;-78
2022/02/08 02:45:45;;;;;;;9.65;3.55;;;;;;;;;;5031842;28;20057;-78
2022/02/08 02:48:11;;;;;;;5.68;3.58;;;;;;;;;;5030294;28;20050;-79
2022/02/08 02:50:37;;;;;;;7.22;3.17;;;;;;;;;;5030411;28;20021;-76
2022/02/08 02:53:04;;;;;;;16.85;4.75;;;;;;;;;;5031649;28;20022;-77
2022/02/08 02:55:32;;;;;;;9.65;4.35;;;;;;;;;;5030323;28;20033;-77
2022/02/08 02:57:58;;;;;;;4.32;2.53;;;;;;;;;;5030507;28;20028;-76
2022/02/08 03:00:37;;;;;;;11.32;3.78;;;;;;;;;;5032651;28;20068;-78
2022/02/08 03:03:23;;;;;;;9.23;3.55;;;;;;;;;;5034228;28;20049;-77
2022/02/08 03:17:30;;;;;;;5.78;3.35;;;;;;;;;;5035311;28;20017;-77
2022/02/08 03:19:49;;;;;;;11.88;3.55;;;;;;;;;;5035191;28;20036;-79
2022/02/08 03:22:15;;;;;;;7.88;3.80;;;;;;;;;;5033737;28;20021;-80
2022/02/08 03:24:41;;;;;;;8.63;4.43;;;;;;;;;;5033717;28;20021;-78
2022/02/08 03:27:07;;;;;;;16.55;3.05;;;;;;;;;;5033630;28;20105;-77
2022/02/08 03:29:33;;;;;;;8.05;3.55;;;;;;;;;;5033295;28;20029;-81
2022/02/08 03:31:59;;;;;;;11.55;3.50;;;;;;;;;;5033829;28;20021;-81
2022/02/08 03:34:25;;;;;;;6.07;3.53;;;;;;;;;;5034030;28;20021;-84
2022/02/08 03:36:52;;;;;;;9.80;4.32;;;;;;;;;;5033965;28;20063;-79
2022/02/08 03:39:23;;;;;;;5.15;3.67;;;;;;;;;;5033910;28;20053;-80
2022/02/08 03:41:54;;;;;;;6.65;4.20;;;;;;;;;;5033873;28;20032;-83
2022/02/08 03:44:30;;;;;;;24.70;3.85;;;;;;;;;;5035577;28;20013;-85
2022/02/08 03:46:57;;;;;;;8.40;3.80;;;;;;;;;;5034515;28;20104;-86
2022/02/08 03:49:23;;;;;;;6.72;4.28;;;;;;;;;;5034088;28;20057;-85
2022/02/08 03:51:52;;;;;;;13.43;3.83;;;;;;;;;;5034112;28;20049;-85
2022/02/08 03:54:18;;;;;;;5.63;3.25;;;;;;;;;;5034262;28;20557;-86
2022/02/08 03:56:45;;;;;;;13.98;4.80;;;;;;;;;;5034532;28;20083;-84
2022/02/08 03:59:15;;;;;;;7.35;3.03;;;;;;;;;;5033873;28;20022;-84
2022/02/08 04:06:54;;;;;;;11.23;4.95;;;;;;;;;;5034876;28;20052;-84
2022/02/08 04:09:21;;;;;;;9.00;4.80;;;;;;;;;;5033505;28;20473;-85
2022/02/08 04:11:56;;;;;;;11.95;5.63;;;;;;;;;;5032033;28;20033;-81
2022/02/08 04:14:37;;;;;;;10.52;4.35;;;;;;;;;;5034126;28;20014;-79
2022/02/08 04:17:36;;;;;;;6.40;3.30;;;;;;;;;;5033152;28;20614;-80
2022/02/08 04:39:19;;;;;;;11.00;3.33;;;;;;;;;;5032531;28;20056;-79
2022/02/08 04:41:59;;;;;;;9.52;3.60;;;;;;;;;;5033696;28;20046;-79
2022/02/08 04:47:28;;;;;;;9.52;4.82;;;;;;;;;;5033484;28;20033;-79
2022/02/08 04:49:55;;;;;;;11.77;4.38;;;;;;;;;;5032141;28;20039;-79
2022/02/08 04:52:23;;;;;;;15.98;4.80;;;;;;;;;;5032261;28;20022;-79
2022/02/08 04:57:50;;;;;;;12.52;4.57;;;;;;;;;;5033837;28;20029;-82
2022/02/08 05:00:26;;;;;;;8.52;4.68;;;;;;;;;;5033322;28;20362;-82
2022/02/08 05:35:48;;;;;;;12.18;5.55;;;;;;;;;;5032369;28;20072;-80
2022/02/08 05:43:41;;;;;;;10.02;5.13;;;;;;;;;;5032587;28;20492;-82
2022/02/08 05:48:42;;;;;;;15.95;5.55;;;;;;;;;;5032146;28;20054;-82
2022/02/08 05:51:16;;;;;;;9.43;4.25;;;;;;;;;;5032449;28;20021;-79
2022/02/08 05:53:43;;;;;;;;;;;;;;;;;;5031440;28;20128;-78
2022/02/08 05:56:18;;;;;;;15.27;6.38;;;;;;;;;;5030839;28;20276;-79
2022/02/08 05:58:46;;;;;;;12.55;6.90;;;;;;;;;;5030919;28;20041;-79
2022/02/08 06:01:13;;;;;;;14.40;6.82;;;;;;;;;;5030896;28;20025;-79
2022/02/08 06:03:39;;;;;;;11.52;6.88;;;;;;;;;;5032369;28;20017;-79
2022/02/08 06:06:05;;;;;;;10.60;5.85;;;;;;;;;;5030951;28;20024;-80
2022/02/08 06:08:31;;;;;;;13.38;6.80;;;;;;;;;;5030984;28;20410;-79
2022/02/08 06:11:03;;;;;;;12.38;6.72;;;;;;;;;;5032432;28;20087;-79
2022/02/08 06:13:30;;;;;;;7.63;5.32;;;;;;;;;;5030658;28;20030;-80
2022/02/08 06:16:02;;;;;;;11.10;6.32;;;;;;;;;;5031363;28;20017;-83
2022/02/08 06:18:31;;;;;;;15.38;7.60;;;;;;;;;;5032056;28;20365;-79
2022/02/08 06:20:57;;;;;;;15.82;7.88;;;;;;;;;;5030568;28;20026;-79
2022/02/08 06:23:24;;;;;;;13.23;6.32;;;;;;;;;;5030234;28;20025;-79
2022/02/08 06:25:50;;;;;;;10.02;7.25;;;;;;;;;;5031521;28;20424;-78
2022/02/08 06:28:17;;;;;;;10.90;6.30;;;;;;;;;;5030497;28;20049;-78
2022/02/08 06:30:46;;;;;;;11.32;5.65;;;;;;;;;;5025984;28;20037;-78
2022/02/08 06:33:13;;;;;;;11.25;8.23;;;;;;;;;;5021626;28;20022;-78
2022/02/08 06:35:39;;;;;;;13.32;6.40;;;;;;;;;;5014573;28;20022;-79
2022/02/08 06:38:09;;;;;;;10.88;6.13;;;;;;;;;;5016064;28;20025;-78
2022/02/08 06:40:37;;;;;;;12.95;6.82;;;;;;;;;;5014847;28;20048;-77
2022/02/08 06:43:04;;;;;;;14.45;6.63;;;;;;;;;;5014712;28;20022;-78
2022/02/08 06:45:31;;;;;;;8.02;5.00;;;;;;;;;;5017568;28;20078;-78
2022/02/08 06:47:57;;;;;;;16.08;8.30;;;;;;;;;;5033371;28;20041;-78
2022/02/08 06:50:23;;;;;;;9.50;5.32;;;;;;;;;;5018937;28;20042;-81
2022/02/08 06:52:49;;;;;;;13.60;8.30;;;;;;;;;;5015793;28;20115;-80
2022/02/08 06:55:15;;;;;;;17.88;7.65;;;;;;;;;;5014278;28;20160;-79
2022/02/08 07:00:22;;;;;;;10.27;6.65;;;;;;;;;;5016475;28;20059;-78
2022/02/08 07:02:51;;;;;;;13.23;6.05;;;;;;;;;;5025153;28;20080;-78
2022/02/08 07:05:17;;;;;;;8.32;5.65;;;;;;;;;;5030995;28;20013;-79
2022/02/08 07:07:43;;;;;;;11.68;6.57;;;;;;;;;;5033708;28;20069;-79
2022/02/08 07:10:10;;;;;;;16.63;7.97;;;;;;;;;;5033781;28;20037;-79
2022/02/08 07:12:36;;;;;;;17.60;8.73;;;;;;;;;;5033855;28;20025;-79
2022/02/08 07:15:08;;;;;;;10.55;7.25;;;;;;;;;;5034990;28;20366;-80
2022/02/08 07:17:34;;;;;;;13.93;7.57;;;;;;;;;;5021620;28;20030;-79
2022/02/08 07:20:00;;;;;;;20.17;8.00;;;;;;;;;;5013299;28;20022;-80
2022/02/08 07:22:26;;;;;;;14.43;7.38;;;;;;;;;;5015060;28;20029;-79
2022/02/08 07:24:55;;;;;;;19.55;7.95;;;;;;;;;;5014100;28;20018;-79
2022/02/08 07:27:21;;;;;;;16.77;7.32;;;;;;;;;;5013970;28;20022;-78
2022/02/08 07:29:51;;;;;;;19.20;9.05;;;;;;;;;;5019141;28;20030;-81
2022/02/08 07:32:19;;;;;;;14.00;7.95;;;;;;;;;;5033546;28;20017;-79
2022/02/08 07:34:55;;;;;;;18.38;8.77;;;;;;;;;;5033558;28;20768;-78
2022/02/08 07:37:33;;;;;;;20.35;9.05;;;;;;;;;;5034672;28;20492;-80
2022/02/08 07:40:04;;;;;;;16.00;9.25;;;;;;;;;;5033380;28;20021;-79
2022/02/08 07:42:30;;;;;;;13.82;6.95;;;;;;;;;;5033367;28;20113;-79
2022/02/08 07:44:56;;;;;;;10.23;6.78;;;;;;;;;;5032949;28;20087;-79
2022/02/08 07:47:22;;;;;;;16.02;8.55;;;;;;;;;;5033010;28;20029;-79
2022/02/08 07:49:48;;;;;;;20.95;8.68;;;;;;;;;;5033087;28;20025;-80
2022/02/08 07:52:14;;;;;;;12.95;6.38;;;;;;;;;;5034465;28;20022;-80
2022/02/08 07:54:40;;;;;;;14.23;8.07;;;;;;;;;;5033191;28;20056;-79
2022/02/08 07:57:06;;;;;;;22.00;12.05;;;;;;;;;;5033090;28;20112;-78
2022/02/08 07:59:32;;;;;;;14.55;8.90;;;;;;;;;;5033152;28;20025;-79
2022/02/08 08:01:58;;;;;;;24.40;10.07;;;;;;;;;;5033079;28;20415;-80
2022/02/08 08:04:24;;;;;;;14.10;8.18;;;;;;;;;;5033781;28;20096;-82
2022/02/08 08:06:50;;;;;;;18.13;10.63;;;;;;;;;;5034333;28;20053;-77
2022/02/08 08:09:17;;;;;;;14.30;7.18;;;;;;;;;;5032788;28;20465;-79
2022/02/08 08:11:45;;;;;;;15.48;7.28;;;;;;;;;;5032765;28;20091;-77
2022/02/08 08:14:12;;;;;;;16.48;8.43;;;;;;;;;;5032762;28;20025;-77
2022/02/08 08:16:46;;;;;;;16.55;9.18;;;;;;;;;;5032735;28;20017;-78
2022/02/08 08:21:48;;;;;;;23.15;8.65;;;;;;;;;;5033964;28;20120;-77
2022/02/08 08:24:15;;;;;;;34.40;10.82;;;;;;;;;;5029260;28;20014;-79
2022/02/08 08:26:41;;;;;;;24.15;9.48;;;;;;;;;;5032283;28;20021;-78
2022/02/08 08:29:07;;;;;;;12.80;6.00;;;;;;;;;;5031530;28;20068;-78
2022/02/08 08:31:33;;;;;;;24.05;8.77;;;;;;;;;;5032456;28;20018;-78
2022/02/08 08:34:00;;;;;;;14.38;5.32;;;;;;;;;;5033328;28;20103;-79
2022/02/08 08:36:28;;;;;;;15.00;6.93;;;;;;;;;;5032260;28;20048;-78
2022/02/08 08:38:54;;;;;;;16.63;6.22;;;;;;;;;;5033933;28;20022;-79
2022/02/08 08:41:34;;;;;;;14.00;4.88;;;;;;;;;;5032393;28;20021;-77
2022/02/08 08:51:51;;;;;;;17.95;5.85;;;;;;;;;;5033091;28;20041;-78
2022/02/08 08:54:18;;;;;;;15.82;8.50;;;;;;;;;;5021774;28;20014;-79
2022/02/08 08:56:45;;;;;;;15.05;6.45;;;;;;;;;;5018599;28;20037;-80
2022/02/08 08:59:12;;;;;;;25.08;9.48;;;;;;;;;;5028721;28;20124;-80
2022/02/08 09:01:39;;;;;;;18.17;6.18;;;;;;;;;;5028246;28;20052;-79
2022/02/08 09:04:06;;;;;;;27.85;9.50;;;;;;;;;;5025386;28;20465;-82
2022/02/08 09:06:33;;;;;;;15.43;7.80;;;;;;;;;;5011996;28;20077;-81
2022/02/08 09:09:00;;;;;;;15.98;7.65;;;;;;;;;;5012028;28;20034;-81
2022/02/08 09:14:12;;;;;;;15.48;6.53;;;;;;;;;;5032058;28;20091;-80
2022/02/08 09:29:39;;;;;;;18.95;6.93;;;;;;;;;;5029016;28;20412;-82
2022/02/08 09:32:42;;;;;;;10.02;6.90;;;;;;;;;;5028860;28;20021;-79
2022/02/08 09:34:57;;;;;;;20.02;10.93;;;;;;;;;;5030004;28;20071;-80
2022/02/08 09:37:23;;;;;;;17.35;8.05;;;;;;;;;;5019064;28;20425;-83
2022/02/08 09:39:51;;;;;;;13.50;5.88;;;;;;;;;;5026028;28;20049;-79
2022/02/08 09:42:17;;;;;;;22.92;6.78;;;;;;;;;;5029029;28;20013;-85
2022/02/08 09:44:43;;;;;;;14.68;8.75;;;;;;;;;;5028737;28;20112;-83
2022/02/08 09:47:17;;;;;;;19.83;7.85;;;;;;;;;;5023638;28;20026;-79
2022/02/08 09:49:53;;;;;;;32.25;9.48;;;;;;;;;;5028668;28;20443;-82
2022/02/08 09:52:20;;;;;;;8.35;4.75;;;;;;;;;;5030197;28;20017;-83
2022/02/08 09:54:47;;;;;;;14.95;7.38;;;;;;;;;;5029264;28;20017;-82
2022/02/08 09:57:14;;;;;;;19.30;8.10;;;;;;;;;;5017080;28;20069;-84
2022/02/08 09:59:41;;;;;;;12.20;6.35;;;;;;;;;;5031113;28;20026;-86
2022/02/08 10:02:07;;;;;;;12.35;5.22;;;;;;;;;;5025803;28;20025;-88
2022/02/08 10:04:33;;;;;;;14.45;7.13;;;;;;;;;;5030305;28;20021;-76
2022/02/08 10:07:13;;;;;;;15.57;9.02;;;;;;;;;;5029308;28;20464;-76
2022/02/08 10:09:39;;;;;;;13.73;7.93;;;;;;;;;;5029422;28;20538;-76
2022/02/08 10:12:05;;;;;;;13.90;6.78;;;;;;;;;;5030252;28;20120;-76
2022/02/08 10:22:50;;;;;;;16.85;7.70;;;;;;;;;;5029386;28;20034;-88
2022/02/08 10:25:38;;;;;;;22.45;8.40;;;;;;;;;;5029885;28;20052;-84
2022/02/08 10:28:13;;;;;;;23.25;7.10;;;;;;;;;;5030795;28;20474;-83
2022/02/08 10:31:26;;;;;;;14.65;6.95;;;;;;;;;;5029582;28;20044;-83
2022/02/08 10:39:04;;;;;;;18.60;6.18;;;;;;;;;;5019634;28;20179;-78
2022/02/08 10:41:33;;;;;;;17.83;7.57;;;;;;;;;;5011237;28;20106;-78
2022/02/08 10:44:03;;;;;;;24.85;9.35;;;;;;;;;;5018144;28;20108;-78
2022/02/08 10:46:29;;;;;;;16.15;7.57;;;;;;;;;;5024248;28;20029;-82
2022/02/08 10:49:12;;;;;;;23.45;7.38;;;;;;;;;;5025864;28;20089;-78
2022/02/08 10:51:49;;;;;;;20.05;7.78;;;;;;;;;;5027330;28;20498;-80
2022/02/08 10:54:23;;;;;;;19.45;8.52;;;;;;;;;;5022361;28;20092;-78
2022/02/08 10:56:56;;;;;;;17.90;8.07;;;;;;;;;;5012028;28;20034;-81
2022/02/08 10:59:31;;;;;;;15.75;7.20;;;;;;;;;;5026651;28;20125;-77
2022/02/08 11:02:04;;;;;;;19.15;9.30;;;;;;;;;;5026007;28;20014;-78
2022/02/08 11:04:48;;;;;;;29.03;8.80;;;;;;;;;;5023959;28;20026;-79
2022/02/08 11:10:46;;;;;;;19.90;10.57;;;;;;;;;;5679031;23;20088;-95
2022/02/08 11:13:15;;;;;;;27.58;9.73;;;;;;;;;;5070467;23;20085;-77
2022/02/08 11:15:48;;;;;;;24.35;10.25;;;;;;;;;;5024736;28;20075;-76
2022/02/08 11:19:03;;;;;;;17.98;8.48;;;;;;;;;;5029154;28;20467;-78
2022/02/08 11:24:07;;;;;;;19.13;8.55;;;;;;;;;;5032880;28;20068;-77
2022/02/08 11:26:36;;;;;;;20.40;7.97;;;;;;;;;;5033357;28;20018;-78
2022/02/08 11:29:28;;;;;;;19.98;8.93;;;;;;;;;;5030451;28;20026;-78
2022/02/08 11:32:12;;;;;;;12.10;6.30;;;;;;;;;;5029263;28;20025;-77
2022/02/08 11:46:00;;;;;;;31.60;13.75;;;;;;;;;;5021290;28;20033;-78
2022/02/08 11:51:18;;;;;;;19.42;7.13;;;;;;;;;;5029980;28;20622;-78
2022/02/08 11:53:59;;;;;;;19.83;6.80;;;153.70;2252.80;;;;;;5013838;28;20025;-78
2022/02/08 11:57:15;;;;;;;15.30;6.07;;;153.60;2252.80;;;;;;5011925;28;20091;-78
2022/02/08 11:59:47;;;;;;;17.73;5.65;;;128.90;2252.80;;;;;;5030434;28;20026;-78
2022/02/08 12:07:52;;;;;;;14.05;7.13;;;;;;;;;;5029651;28;20041;-77
2022/02/08 12:59:24;;;;;;;19.08;5.85;;;;;;;;;;5014332;28;20056;-78
2022/02/08 13:04:52;;;;;;;21.92;6.88;;;;;;;;;;4980729;28;20030;-77
2022/02/08 14:07:42;;;;;;;22.23;7.30;;;;;;;;;;5031491;28;20026;-79
2022/02/08 14:13:22;;;;;;;11.30;6.10;;;;;;;;;;5028910;28;20045;-79
2022/02/08 14:18:09;;;;;;;16.80;7.88;;;;;;;;;;5019827;28;20034;-79
2022/02/08 14:23:24;;;;;;;21.42;7.30;;;;;;;;;;5025919;28;20088;-79
2022/02/08 14:29:03;;;;;;;20.17;7.38;;;;;;;;;;5035470;28;20030;-78
2022/02/08 14:49:05;;;;;;;21.17;9.02;;;;;;;;;;5025367;28;20829;-78
2022/02/08 15:09:58;;;;;;;27.17;11.80;;;;;;;;;;5031138;28;20045;-80
2022/02/08 15:12:27;;;;;;;15.15;6.95;;;;;;;;;;5032302;28;20041;-79
2022/02/08 15:15:12;;;;;;;32.80;16.02;;;;;;;;;;5015066;28;21439;-79
2022/02/08 15:17:38;;;;;;;18.05;10.40;;;;;;;;;;5001968;28;20319;-79
2022/02/08 15:20:06;;;;;;;18.58;10.10;;;;;;;;;;5013831;28;20026;-80
2022/02/08 15:22:32;;;;;;;13.93;5.53;;;;;;;;;;4996324;28;20084;-79
2022/02/08 15:25:00;;;;;;;19.98;9.93;;;;;;;;;;4997015;28;20464;-80
2022/02/08 15:27:28;;;;;;;13.48;5.20;;;;;;;;;;5003851;28;20018;-79
2022/02/08 15:29:56;;;;;;;21.90;8.18;;;;;;;;;;5003730;28;20081;-79
2022/02/08 15:32:22;;;;;;;12.55;6.95;;;;;;;;;;5003775;28;20415;-79
2022/02/08 15:34:48;;;;;;;15.60;7.00;;;;;;;;;;5004006;28;20018;-80
2022/02/08 15:37:15;;;;;;;22.23;10.13;;;;;;;;;;5016475;28;20025;-79
2022/02/08 15:39:41;;;;;;;20.60;8.63;;;;;;;;;;5016281;28;20018;-80
2022/02/08 15:42:07;;;;;;;15.65;9.10;;;;;;;;;;5016191;28;20425;-79
2022/02/08 15:44:35;;;;;;;23.05;9.50;;;;;;;;;;5020870;28;20048;-78
2022/02/08 15:47:08;;;;;;;31.23;12.45;;;;;;;;;;5010873;28;20060;-79
2022/02/08 15:49:40;;;;;;;13.85;7.88;;;;;;;;;;5016147;28;20128;-80
2022/02/08 15:52:16;;;;;;;11.40;6.35;;;;;;;;;;5016005;28;20471;-79
2022/02/08 15:54:46;;;;;;;15.43;6.60;;;;;;;;;;5015959;28;20070;-80
2022/02/08 16:05:36;;;;;;;13.35;6.38;;;;;;;;;;5027157;28;20034;-82
2022/02/08 16:08:08;;;;;;;23.60;8.30;;;;;;;;;;4999961;28;20029;-82
2022/02/08 16:10:48;;;;;;;14.07;7.70;;;;;;;;;;5005990;28;20072;-79
2022/02/08 16:16:21;;;;;;;20.88;10.52;;;;;;;;;;5001472;28;20076;-79
2022/02/08 16:19:04;;;;;;;20.00;11.07;;;;;;;;;;4996861;28;20022;-78
2022/02/08 16:32:04;;;;;;;18.73;10.70;;;;;;;;;;5025802;28;20400;-79
2022/02/08 17:01:14;;;;;;;37.75;20.88;;;;;;;;;;5031297;28;20032;-79
2022/02/08 17:03:45;;;;;;;47.45;22.08;;;;;;;;;;5013847;28;20360;-79
2022/02/08 17:06:13;;;;;;;43.03;23.67;;;;;;;;;;5031406;28;20298;-79
2022/02/08 17:08:39;;;;;;;67.32;38.80;;;;;;;;;;5004660;28;20018;-79
2022/02/08 17:11:06;;;;;;;56.03;30.63;;;;;;;;;;5006439;28;20104;-80
2022/02/08 17:16:35;;;;;;;51.60;29.85;;;;;;;;;;5011285;28;20037;-80
2022/02/08 17:19:29;;;;;;;67.63;38.38;;;;;;;;;;5012330;28;20017;-80
2022/02/08 17:46:23;;;;;;;45.75;26.45;;;;;;;;;;5013302;28;20037;-79
2022/02/08 17:48:50;;;;;;;52.95;26.88;;;;;;;;;;4996019;28;20364;-79
2022/02/08 17:51:16;;;;;;;59.15;32.53;;;;;;;;;;5007533;28;20014;-79
2022/02/08 17:53:42;;;;;;;48.78;28.52;;;;;;;;;;5014022;28;20116;-79
2022/02/08 17:56:08;;;;;;;57.70;27.77;;;;;;;;;;5013948;28;20022;-79
2022/02/08 17:58:36;;;;;;;48.08;27.42;;;;;;;;;;5013797;28;20017;-80
2022/02/08 18:01:02;;;;;;;56.70;33.08;;;;;;;;;;5013860;28;20021;-79
2022/02/08 18:03:28;;;;;;;65.13;36.70;;;;;;;;;;5013813;28;20024;-80
2022/02/08 18:05:54;;;;;;;57.50;35.78;;;;;;;;;;5001128;28;20018;-79
2022/02/08 18:08:23;;;;;;;67.68;38.00;;;;;;;;;;5001361;28;20116;-79
2022/02/08 18:10:54;;;;;;;91.00;45.60;;;;;;;;;;4994652;28;20125;-79
2022/02/08 18:13:21;;;;;;;53.50;32.95;;;;;;;;;;4991160;28;20351;-79
2022/02/08 18:15:47;;;;;;;43.95;27.63;;;;;;;;;;4991449;28;20041;-79
2022/02/08 18:18:26;;;;;;;41.17;25.40;;;;;;;;;;4991576;28;20073;-79
2022/02/08 18:21:03;;;;;;;41.65;21.58;;;;;;;;;;5010545;28;20342;-79
2022/02/08 18:28:49;;;;;;;67.85;33.70;;;;;;;;;;5011596;28;20025;-79
2022/02/08 18:56:12;;;;;;;45.78;27.00;;;;;;;;;;4996510;28;20121;-79
2022/02/08 19:10:06;;;;;;;61.47;33.70;;;;;;;;;;4996126;28;20035;-78
2022/02/08 19:22:11;;;;;;;83.10;42.47;;;;;;;;;;5015339;28;20037;-75
2022/02/08 19:24:37;;;;;;;117.28;61.17;;;;;;;;;;4997806;28;20026;-76
2022/02/08 19:27:03;;;;;;;70.35;39.67;;;;;;;;;;4997809;28;20102;-75
2022/02/08 19:29:30;;;;;;;97.00;53.22;;;;;;;;;;5020426;28;20484;-76
2022/02/08 19:31:57;;;;;;;54.10;29.88;;;;;;;;;;5016421;28;20021;-76
2022/02/08 19:34:26;;;;;;;56.13;29.17;;;;;;;;;;5033948;28;20025;-76
2022/02/08 19:36:57;;;;;;;45.35;21.83;;;;;;;;;;5016250;28;20041;-77
2022/02/08 19:39:23;;;;;;;50.08;20.80;;;;;;;;;;5033888;28;20018;-75
2022/02/08 19:41:49;;;;;;;34.72;20.08;;;;;;;;;;5033611;28;20026;-75
2022/02/08 19:44:15;;;;;;;69.53;37.30;;;;;;;;;;5016386;28;20499;-75
2022/02/08 19:46:41;;;;;;;53.90;31.40;;;;;;;;;;5016093;28;20021;-75
2022/02/08 19:49:08;;;;;;;73.72;41.35;;;;;;;;;;5016566;28;20033;-77
2022/02/08 19:51:34;;;;;;;77.15;44.35;;;;;;;;;;5015024;28;20503;-75
2022/02/08 19:54:01;;;;;;;63.92;35.00;;;;;;;;;;4997416;28;20392;-75
2022/02/08 19:56:54;;;;;;;57.83;31.73;;;;;;;;;;4997418;28;20477;-77
2022/02/08 19:59:19;;;;;;;59.20;33.15;;;;;;;;;;5020808;28;20106;-77
2022/02/08 20:01:50;;;;;;;36.05;21.33;;;;;;;;;;5010313;28;20468;-76
2022/02/08 20:04:19;;;;;;;60.35;35.47;;;;;;;;;;5032921;28;20464;-75
2022/02/08 20:06:45;;;;;;;50.63;31.70;;;;;;;;;;5010959;28;20034;-75
2022/02/08 20:09:17;;;;;;;51.38;27.75;;;;;;;;;;5015930;28;20442;-77
2022/02/08 20:11:44;;;;;;;52.78;29.60;;;;;;;;;;5015659;28;20120;-75
2022/02/08 20:14:12;;;;;;;51.95;29.23;;;;;;;;;;5015665;28;20488;-78
2022/02/08 20:16:38;;;;;;;46.22;25.65;;;;;;;;;;5015549;28;20029;-75
2022/02/08 20:19:06;;;;;;;63.85;29.83;;;;;;;;;;5033520;28;20021;-76
2022/02/08 20:21:33;;;;;;;66.93;29.48;;;;;;;;;;5033458;28;20639;-76
2022/02/08 20:24:02;;;;;;;67.80;31.98;;;;;;;;;;5015432;28;20036;-75
2022/02/08 20:29:12;;;;;;;58.15;29.80;;;;;;;;;;5030307;28;20044;-75
2022/02/08 20:31:38;;;;;;;49.10;25.48;;;;;;;;;;5030152;28;20026;-75
2022/02/08 20:34:04;;;;;;;40.88;21.75;;;;;;;;;;5014210;28;20045;-75
2022/02/08 20:36:30;;;;;;;30.02;17.38;;;;;;;;;;5014216;28;20030;-76
2022/02/08 20:38:57;;;;;;;29.58;13.60;;;;;;;;;;5014143;28;20109;-75
2022/02/08 20:41:23;;;;;;;31.95;16.42;;;;;;;;;;4996469;28;20025;-75
2022/02/08 20:43:49;;;;;;;29.17;16.60;;;;;;;;;;4998392;28;20093;-75
2022/02/08 20:46:16;;;;;;;39.95;20.30;;;;;;;;;;5015102;28;20025;-75
2022/02/08 20:48:44;;;;;;;23.85;14.57;;;;;;;;;;5013227;28;20095;-75
2022/02/08 20:51:10;;;;;;;24.58;13.65;;;;;;;;;;5014261;28;20033;-75
2022/02/08 20:53:47;;;;;;;33.95;19.25;;;;;;;;;;5013059;28;20029;-75
2022/02/08 20:56:25;;;;;;;34.78;21.50;;;;;;;;;;5029282;28;20022;-75
2022/02/08 21:01:18;;;;;;;39.70;20.25;;;;;;;;;;5015730;28;20034;-78
2022/02/08 21:04:05;;;;;;;32.97;16.75;;;;;;;;;;5028408;28;20071;-77
2022/02/08 21:06:32;;;;;;;46.72;21.60;;;;;;;;;;5031456;28;20045;-77
2022/02/08 21:08:59;;;;;;;48.05;24.33;;;;;;;;;;5012070;28;20029;-79
2022/02/08 21:11:33;;;;;;;46.33;22.55;;;;;;;;;;5012210;28;20620;-76
2022/02/08 21:14:04;;;;;;;54.45;28.60;;;;;;;;;;5029015;28;20042;-78
2022/02/08 21:16:34;;;;;;;42.50;21.55;;;;;;;;;;5013143;28;20494;-78
2022/02/08 21:19:00;;;;;;;31.77;17.75;;;;;;;;;;5025509;28;20013;-78
2022/02/08 21:21:26;;;;;;;39.40;17.83;;;;;;;;;;5011329;28;20029;-77
2022/02/08 21:23:54;;;;;;;42.13;23.98;;;;;;;;;;5028454;28;20022;-78
2022/02/08 21:26:27;;;;;;;35.88;16.58;;;;;;;;;;5012945;28;20036;-76
2022/02/08 21:52:55;;;;;;;35.42;18.90;;;;;;;;;;5027049;28;20042;-76
2022/02/08 21:55:22;;;;;;;40.25;18.08;;;;;;;;;;5027656;28;20018;-77
2022/02/08 21:57:52;;;;;;;38.92;16.08;;;;;;;;;;5025453;28;20030;-76
2022/02/08 22:00:19;;;;;;;24.88;14.88;;;;;;;;;;5007870;28;20034;-75
2022/02/08 22:02:45;;;;;;;26.85;15.98;;;;;;;;;;5024772;28;20052;-76
2022/02/08 22:05:12;;;;;;;29.50;15.63;;;;;;;;;;5024746;28;20037;-75
2022/02/08 22:07:38;;;;;;;42.78;20.08;;;;;;;;;;5029231;28;20017;-76
2022/02/08 22:10:19;;;;;;;38.78;16.33;;;;;;;;;;5028898;28;20036;-75
2022/02/08 22:15:46;;;;;;;49.13;24.90;;;;;;;;;;5027735;28;20448;-76
2022/02/08 22:20:57;;;;;;;26.45;13.85;;;;;;;;;;5026684;28;20117;-76
2022/02/08 22:23:29;;;;;;;40.00;20.08;;;;;;;;;;5027003;28;20076;-75
2022/02/08 22:31:38;;;;;;;36.60;17.67;;;;;;;;;;4974760;28;20403;-76
2022/02/08 22:34:12;;;;;;;39.03;19.50;;;;;;;;;;5011083;28;20033;-76
2022/02/08 22:42:31;;;;;;;33.92;19.45;;;;;;;;;;5011340;28;20029;-79
2022/02/08 22:44:59;;;;;;;34.13;17.60;;;;;;;;;;5010772;28;20029;-76
2022/02/08 22:47:26;;;;;;;21.33;12.07;;;;;;;;;;5030945;28;20055;-78
2022/02/08 22:49:52;;;;;;;30.25;12.00;;;;;;;;;;5030678;28;20140;-77
2022/02/08 22:52:18;;;;;;;24.48;11.88;;;;;;;;;;5008935;28;20032;-76
2022/02/08 22:54:45;;;;;;;26.92;14.10;;;;;;;;;;5030305;28;20021;-76
2022/02/08 22:57:13;;;;;;;15.02;9.95;;;;;;;;;;5030634;28;20017;-78
2022/02/08 22:59:40;;;;;;;26.08;11.27;;;;;;;;;;5029679;28;20491;-76